sensor_id;sensor_type;location;lat;lon;timestamp;pressure;altitude;pressure_sealevel;temperature;humidity
51299;BME280;37382;45.192;9.790;2022-09-02T00:01:27;101167.34;;;22.04;100.00
51299;BME280;37382;45.192;9.790;2022-09-02T00:03:58;101163.13;;;21.96;100.00
51299;BME280;37382;45.192;9.790;2022-09-02T00:06:27;101173.41;;;21.68;100.00
51299;BME280;37382;45.192;9.790;2022-09-02T00:08:55;101162.91;;;21.71;100.00
51299;BME280;37382;45.192;9.790;2022-09-02T00:11:26;101157.03;;;21.94;100.00
51299;BME280;37382;45.192;9.790;2022-09-02T00:13:55;101157.56;;;21.91;100.00
51299;BME280;37382;45.192;9.790;2022-09-02T00:16:23;101157.34;;;21.71;100.00
51299;BME280;37382;45.192;9.790;2022-09-02T00:18:52;101154.88;;;21.74;100.00
51299;BME280;37382;45.192;9.790;2022-09-02T00:21:20;101154.28;;;21.99;100.00
51299;BME280;37382;45.192;9.790;2022-09-02T00:23:48;101150.50;;;21.78;100.00
51299;BME280;37382;45.192;9.790;2022-09-02T00:26:19;101150.22;;;21.75;100.00
51299;BME280;37382;45.192;9.790;2022-09-02T00:28:47;101154.41;;;21.50;100.00
51299;BME280;37382;45.192;9.790;2022-09-02T00:31:25;101143.25;;;21.72;100.00
51299;BME280;37382;45.192;9.790;2022-09-02T00:33:54;101138.63;;;21.83;100.00
51299;BME280;37382;45.192;9.790;2022-09-02T00:36:21;101149.63;;;21.73;100.00
51299;BME280;37382;45.192;9.790;2022-09-02T00:38:49;101148.00;;;21.49;100.00
51299;BME280;37382;45.192;9.790;2022-09-02T00:41:21;101153.91;;;21.58;100.00
51299;BME280;37382;45.192;9.790;2022-09-02T00:43:51;101149.16;;;21.81;100.00
51299;BME280;37382;45.192;9.790;2022-09-02T00:46:22;101144.78;;;21.85;100.00
51299;BME280;37382;45.192;9.790;2022-09-02T00:49:07;101149.16;;;21.81;100.00
51299;BME280;37382;45.192;9.790;2022-09-02T00:51:44;101139.25;;;21.90;100.00
51299;BME280;37382;45.192;9.790;2022-09-02T00:54:43;101140.56;;;21.50;100.00
51299;BME280;37382;45.192;9.790;2022-09-02T00:57:13;101130.97;;;21.63;100.00
51299;BME280;37382;45.192;9.790;2022-09-02T00:59:54;101137.78;;;21.50;100.00
51299;BME280;37382;45.192;9.790;2022-09-02T01:02:25;101128.19;;;21.36;100.00
51299;BME280;37382;45.192;9.790;2022-09-02T01:04:55;101133.31;;;21.49;100.00
51299;BME280;37382;45.192;9.790;2022-09-02T01:07:26;101142.22;;;21.51;100.00
51299;BME280;37382;45.192;9.790;2022-09-02T01:09:55;101152.03;;;21.64;100.00
51299;BME280;37382;45.192;9.790;2022-09-02T01:12:23;101150.38;;;21.63;100.00
51299;BME280;37382;45.192;9.790;2022-09-02T01:14:54;101153.91;;;21.58;100.00
51299;BME280;37382;45.192;9.790;2022-09-02T01:17:21;101148.41;;;21.63;100.00
51299;BME280;37382;45.192;9.790;2022-09-02T01:20:00;101143.03;;;21.79;100.00
51299;BME280;37382;45.192;9.790;2022-09-02T01:22:31;101143.38;;;21.55;100.00
51299;BME280;37382;45.192;9.790;2022-09-02T01:25:06;101152.88;;;21.64;100.00
51299;BME280;37382;45.192;9.790;2022-09-02T01:27:34;101148.22;;;21.70;100.00
51299;BME280;37382;45.192;9.790;2022-09-02T01:30:05;101147.38;;;21.70;100.00
51299;BME280;37382;45.192;9.790;2022-09-02T01:32:34;101143.47;;;21.65;100.00
51299;BME280;37382;45.192;9.790;2022-09-02T01:35:03;101141.84;;;21.70;100.00
51299;BME280;37382;45.192;9.790;2022-09-02T01:37:31;101129.56;;;21.60;100.00
51299;BME280;37382;45.192;9.790;2022-09-02T01:39:59;101137.09;;;21.65;100.00
51299;BME280;37382;45.192;9.790;2022-09-02T01:42:28;101136.53;;;21.63;100.00
51299;BME280;37382;45.192;9.790;2022-09-02T01:44:56;101132.03;;;21.89;100.00
51299;BME280;37382;45.192;9.790;2022-09-02T01:47:25;101120.53;;;21.70;100.00
51299;BME280;37382;45.192;9.790;2022-09-02T01:49:54;101127.47;;;21.45;100.00
51299;BME280;37382;45.192;9.790;2022-09-02T01:52:24;101124.91;;;21.66;100.00
51299;BME280;37382;45.192;9.790;2022-09-02T01:54:52;101123.31;;;21.70;100.00
51299;BME280;37382;45.192;9.790;2022-09-02T01:57:20;101132.59;;;21.59;100.00
51299;BME280;37382;45.192;9.790;2022-09-02T01:59:52;101127.31;;;21.57;100.00
51299;BME280;37382;45.192;9.790;2022-09-02T02:02:21;101125.72;;;21.61;100.00
51299;BME280;37382;45.192;9.790;2022-09-02T02:04:49;101126.41;;;21.24;100.00
51299;BME280;37382;45.192;9.790;2022-09-02T02:07:18;101126.09;;;21.48;100.00
51299;BME280;37382;45.192;9.790;2022-09-02T02:09:46;101131.53;;;21.38;100.00
51299;BME280;37382;45.192;9.790;2022-09-02T02:12:15;101132.03;;;21.57;100.00
51299;BME280;37382;45.192;9.790;2022-09-02T02:14:43;101127.09;;;21.37;100.00
51299;BME280;37382;45.192;9.790;2022-09-02T02:17:11;101130.75;;;21.42;100.00
51299;BME280;37382;45.192;9.790;2022-09-02T02:19:39;101125.19;;;21.42;100.00
51299;BME280;37382;45.192;9.790;2022-09-02T02:22:07;101119.63;;;21.37;100.00
51299;BME280;37382;45.192;9.790;2022-09-02T02:24:35;101114.53;;;21.51;100.00
51299;BME280;37382;45.192;9.790;2022-09-02T02:27:03;101110.88;;;21.18;100.00
51299;BME280;37382;45.192;9.790;2022-09-02T02:29:31;101110.34;;;21.48;100.00
51299;BME280;37382;45.192;9.790;2022-09-02T02:31:59;101119.81;;;21.53;100.00
51299;BME280;37382;45.192;9.790;2022-09-02T02:34:26;101125.00;;;21.49;100.00
51299;BME280;37382;45.192;9.790;2022-09-02T02:36:54;101127.19;;;21.20;100.00
51299;BME280;37382;45.192;9.790;2022-09-02T02:39:21;101126.88;;;21.43;100.00
51299;BME280;37382;45.192;9.790;2022-09-02T02:41:50;101128.06;;;21.25;100.00
51299;BME280;37382;45.192;9.790;2022-09-02T02:44:18;101126.84;;;21.38;100.00
51299;BME280;37382;45.192;9.790;2022-09-02T02:46:45;101130.16;;;21.13;100.00
51299;BME280;37382;45.192;9.790;2022-09-02T02:49:13;101124.34;;;21.37;100.00
51299;BME280;37382;45.192;9.790;2022-09-02T02:51:41;101126.94;;;21.21;100.00
51299;BME280;37382;45.192;9.790;2022-09-02T02:54:09;101126.09;;;21.21;100.00
51299;BME280;37382;45.192;9.790;2022-09-02T02:56:38;101138.78;;;21.17;100.00
51299;BME280;37382;45.192;9.790;2022-09-02T02:59:06;101139.75;;;21.27;100.00
51299;BME280;37382;45.192;9.790;2022-09-02T03:01:34;101133.34;;;21.27;100.00
51299;BME280;37382;45.192;9.790;2022-09-02T03:04:04;101136.53;;;21.41;100.00
51299;BME280;37382;45.192;9.790;2022-09-02T03:06:32;101139.06;;;21.15;100.00
51299;BME280;37382;45.192;9.790;2022-09-02T03:09:00;101132.63;;;21.09;100.00
51299;BME280;37382;45.192;9.790;2022-09-02T03:11:27;101132.63;;;21.09;100.00
51299;BME280;37382;45.192;9.790;2022-09-02T03:13:56;101139.78;;;20.83;100.00
51299;BME280;37382;45.192;9.790;2022-09-02T03:16:24;101137.38;;;20.92;100.00
51299;BME280;37382;45.192;9.790;2022-09-02T03:18:53;101119.31;;;21.06;100.00
51299;BME280;37382;45.192;9.790;2022-09-02T03:21:21;101127.34;;;20.86;100.00
51299;BME280;37382;45.192;9.790;2022-09-02T03:23:49;101123.53;;;20.92;100.00
51299;BME280;37382;45.192;9.790;2022-09-02T03:26:19;101114.53;;;20.79;100.00
51299;BME280;37382;45.192;9.790;2022-09-02T03:28:48;101110.88;;;20.96;100.00
51299;BME280;37382;45.192;9.790;2022-09-02T03:33:46;101110.56;;;20.92;100.00
51299;BME280;37382;45.192;9.790;2022-09-02T03:36:39;101117.19;;;20.91;100.00
51299;BME280;37382;45.192;9.790;2022-09-02T03:39:10;101107.09;;;20.80;100.00
51299;BME280;37382;45.192;9.790;2022-09-02T03:41:41;101098.00;;;20.62;100.00
51299;BME280;37382;45.192;9.790;2022-09-02T03:44:10;101113.00;;;20.67;100.00
51299;BME280;37382;45.192;9.790;2022-09-02T03:46:38;101112.75;;;20.68;100.00
51299;BME280;37382;45.192;9.790;2022-09-02T03:49:06;101109.00;;;20.79;100.00
51299;BME280;37382;45.192;9.790;2022-09-02T03:51:34;101114.88;;;20.44;100.00
51299;BME280;37382;45.192;9.790;2022-09-02T03:54:01;101118.53;;;20.67;100.00
51299;BME280;37382;45.192;9.790;2022-09-02T03:56:30;101117.13;;;20.86;100.00
51299;BME280;37382;45.192;9.790;2022-09-02T03:58:59;101125.22;;;20.54;100.00
51299;BME280;37382;45.192;9.790;2022-09-02T04:01:27;101122.78;;;20.74;100.00
51299;BME280;37382;45.192;9.790;2022-09-02T04:04:04;101123.69;;;20.80;100.00
51299;BME280;37382;45.192;9.790;2022-09-02T04:06:34;101122.94;;;20.68;100.00
51299;BME280;37382;45.192;9.790;2022-09-02T04:09:03;101112.88;;;21.01;100.00
51299;BME280;37382;45.192;9.790;2022-09-02T04:11:38;101113.00;;;20.67;100.00
51299;BME280;37382;45.192;9.790;2022-09-02T04:14:11;101104.50;;;20.73;100.00
51299;BME280;37382;45.192;9.790;2022-09-02T04:16:39;101115.84;;;20.55;100.00
51299;BME280;37382;45.192;9.790;2022-09-02T04:19:08;101124.97;;;20.72;100.00
51299;BME280;37382;45.192;9.790;2022-09-02T04:21:38;101130.44;;;20.89;100.00
51299;BME280;37382;45.192;9.790;2022-09-02T04:24:08;101123.19;;;20.83;100.00
51299;BME280;37382;45.192;9.790;2022-09-02T04:26:38;101127.53;;;20.79;100.00
51299;BME280;37382;45.192;9.790;2022-09-02T04:29:15;101123.78;;;20.29;100.00
51299;BME280;37382;45.192;9.790;2022-09-02T04:31:43;101126.63;;;20.34;100.00
51299;BME280;37382;45.192;9.790;2022-09-02T04:34:11;101120.09;;;20.23;100.00
51299;BME280;37382;45.192;9.790;2022-09-02T04:36:40;101119.06;;;20.47;100.00
51299;BME280;37382;45.192;9.790;2022-09-02T04:39:10;101126.69;;;20.39;100.00
51299;BME280;37382;45.192;9.790;2022-09-02T04:41:38;101126.78;;;20.27;100.00
51299;BME280;37382;45.192;9.790;2022-09-02T04:44:08;101143.31;;;20.05;100.00
51299;BME280;37382;45.192;9.790;2022-09-02T04:46:39;101139.59;;;20.34;100.00
51299;BME280;37382;45.192;9.790;2022-09-02T04:49:35;101140.66;;;20.50;100.00
51299;BME280;37382;45.192;9.790;2022-09-02T04:52:02;101152.34;;;20.57;100.00
51299;BME280;37382;45.192;9.790;2022-09-02T04:54:31;101150.13;;;20.71;100.00
51299;BME280;37382;45.192;9.790;2022-09-02T04:57:00;101157.44;;;20.82;100.00
51299;BME280;37382;45.192;9.790;2022-09-02T04:59:29;101157.25;;;20.89;100.00
51299;BME280;37382;45.192;9.790;2022-09-02T05:02:03;101155.25;;;20.84;100.00
51299;BME280;37382;45.192;9.790;2022-09-02T05:07:00;101156.97;;;20.68;100.00
51299;BME280;37382;45.192;9.790;2022-09-02T05:09:30;101151.91;;;20.82;100.00
51299;BME280;37382;45.192;9.790;2022-09-02T05:12:02;101152.44;;;20.79;100.00
51299;BME280;37382;45.192;9.790;2022-09-02T05:14:57;101162.25;;;20.70;100.00
51299;BME280;37382;45.192;9.790;2022-09-02T05:17:30;101154.69;;;20.82;100.00
51299;BME280;37382;45.192;9.790;2022-09-02T05:20:05;101156.88;;;20.80;100.00
51299;BME280;37382;45.192;9.790;2022-09-02T05:22:35;101162.56;;;20.73;100.00
51299;BME280;37382;45.192;9.790;2022-09-02T05:25:05;101165.22;;;20.85;100.00
51299;BME280;37382;45.192;9.790;2022-09-02T05:27:35;101164.00;;;20.98;100.00
51299;BME280;37382;45.192;9.790;2022-09-02T05:30:05;101167.22;;;21.12;100.00
51299;BME280;37382;45.192;9.790;2022-09-02T05:32:39;101169.41;;;21.10;100.00
51299;BME280;37382;45.192;9.790;2022-09-02T05:35:09;101179.13;;;21.12;100.00
51299;BME280;37382;45.192;9.790;2022-09-02T05:37:37;101189.28;;;21.07;100.00
51299;BME280;37382;45.192;9.790;2022-09-02T05:40:06;101196.47;;;21.30;100.00
51299;BME280;37382;45.192;9.790;2022-09-02T05:42:38;101206.41;;;21.26;100.00
51299;BME280;37382;45.192;9.790;2022-09-02T05:45:07;101197.13;;;21.37;100.00
51299;BME280;37382;45.192;9.790;2022-09-02T05:47:35;101204.13;;;21.45;100.00
51299;BME280;37382;45.192;9.790;2022-09-02T05:50:03;101203.38;;;21.27;100.00
51299;BME280;37382;45.192;9.790;2022-09-02T05:52:35;101203.38;;;21.27;100.00
51299;BME280;37382;45.192;9.790;2022-09-02T05:55:03;101189.03;;;21.30;100.00
51299;BME280;37382;45.192;9.790;2022-09-02T05:57:34;101194.38;;;21.59;100.00
51299;BME280;37382;45.192;9.790;2022-09-02T06:00:06;101183.28;;;21.37;100.00
51299;BME280;37382;45.192;9.790;2022-09-02T06:02:41;101189.88;;;21.53;100.00
51299;BME280;37382;45.192;9.790;2022-09-02T06:05:18;101192.03;;;21.51;100.00
51299;BME280;37382;45.192;9.790;2022-09-02T06:07:53;101193.72;;;21.52;100.00
51299;BME280;37382;45.192;9.790;2022-09-02T06:10:22;101196.75;;;21.50;100.00
51299;BME280;37382;45.192;9.790;2022-09-02T06:12:50;101192.94;;;21.35;100.00
51299;BME280;37382;45.192;9.790;2022-09-02T06:15:20;101197.44;;;21.41;100.00
51299;BME280;37382;45.192;9.790;2022-09-02T06:17:49;101198.66;;;21.77;100.00
51299;BME280;37382;45.192;9.790;2022-09-02T06:20:24;101199.38;;;21.90;100.00
51299;BME280;37382;45.192;9.790;2022-09-02T06:22:52;101202.56;;;22.09;100.00
51299;BME280;37382;45.192;9.790;2022-09-02T06:25:20;101207.19;;;22.30;100.00
51299;BME280;37382;45.192;9.790;2022-09-02T06:27:48;101199.84;;;22.46;100.00
51299;BME280;37382;45.192;9.790;2022-09-02T06:30:17;101198.03;;;22.30;100.00
51299;BME280;37382;45.192;9.790;2022-09-02T06:32:44;101200.41;;;22.43;100.00
51299;BME280;37382;45.192;9.790;2022-09-02T06:35:18;101195.59;;;22.33;100.00
51299;BME280;37382;45.192;9.790;2022-09-02T06:37:46;101193.97;;;22.37;100.00
51299;BME280;37382;45.192;9.790;2022-09-02T06:40:14;101197.97;;;22.57;100.00
51299;BME280;37382;45.192;9.790;2022-09-02T06:42:43;101197.44;;;22.60;100.00
51299;BME280;37382;45.192;9.790;2022-09-02T06:45:25;101198.94;;;22.78;100.00
51299;BME280;37382;45.192;9.790;2022-09-02T06:47:55;101195.03;;;23.32;100.00
51299;BME280;37382;45.192;9.790;2022-09-02T06:50:22;101195.03;;;23.32;100.00
51299;BME280;37382;45.192;9.790;2022-09-02T06:52:50;101195.03;;;23.32;100.00
51299;BME280;37382;45.192;9.790;2022-09-02T06:55:17;101195.03;;;23.27;100.00
51299;BME280;37382;45.192;9.790;2022-09-02T06:57:45;101195.38;;;23.41;100.00
51299;BME280;37382;45.192;9.790;2022-09-02T07:00:14;101195.66;;;23.50;100.00
51299;BME280;37382;45.192;9.790;2022-09-02T07:02:43;101183.06;;;23.21;100.00
51299;BME280;37382;45.192;9.790;2022-09-02T07:05:33;101190.53;;;23.16;100.00
51299;BME280;37382;45.192;9.790;2022-09-02T07:08:01;101189.50;;;23.32;100.00
51299;BME280;37382;45.192;9.790;2022-09-02T07:10:28;101188.63;;;23.21;100.00
51299;BME280;37382;45.192;9.790;2022-09-02T07:12:56;101186.13;;;23.15;100.00
51299;BME280;37382;45.192;9.790;2022-09-02T07:15:24;101178.19;;;23.54;100.00
51299;BME280;37382;45.192;9.790;2022-09-02T07:17:52;101187.94;;;23.72;100.00
51299;BME280;37382;45.192;9.790;2022-09-02T07:20:31;101192.94;;;23.80;100.00
51299;BME280;37382;45.192;9.790;2022-09-02T07:23:09;101204.56;;;23.47;100.00
51299;BME280;37382;45.192;9.790;2022-09-02T07:25:38;101196.53;;;23.60;100.00
51299;BME280;37382;45.192;9.790;2022-09-02T07:28:10;101193.47;;;23.67;100.00
51299;BME280;37382;45.192;9.790;2022-09-02T07:30:41;101205.13;;;23.64;100.00
51299;BME280;37382;45.192;9.790;2022-09-02T07:33:14;101198.19;;;23.72;100.00
51299;BME280;37382;45.192;9.790;2022-09-02T07:35:44;101203.56;;;24.20;100.00
51299;BME280;37382;45.192;9.790;2022-09-02T07:38:14;101193.84;;;24.12;100.00
51299;BME280;37382;45.192;9.790;2022-09-02T07:40:42;101206.06;;;24.26;100.00
51299;BME280;37382;45.192;9.790;2022-09-02T07:43:11;101198.00;;;24.35;100.00
51299;BME280;37382;45.192;9.790;2022-09-02T07:45:40;101191.03;;;24.58;100.00
51299;BME280;37382;45.192;9.790;2022-09-02T07:48:10;101191.59;;;24.50;98.71
51299;BME280;37382;45.192;9.790;2022-09-02T07:50:38;101191.31;;;24.41;99.62
51299;BME280;37382;45.192;9.790;2022-09-02T07:53:08;101198.50;;;24.78;95.52
51299;BME280;37382;45.192;9.790;2022-09-02T07:55:38;101200.38;;;24.98;92.70
51299;BME280;37382;45.192;9.790;2022-09-02T07:58:09;101208.19;;;25.56;89.41
51299;BME280;37382;45.192;9.790;2022-09-02T08:00:42;101201.94;;;25.20;94.14
51299;BME280;37382;45.192;9.790;2022-09-02T08:03:11;101203.78;;;24.85;92.17
51299;BME280;37382;45.192;9.790;2022-09-02T08:05:44;101204.50;;;25.11;87.53
51299;BME280;37382;45.192;9.790;2022-09-02T08:08:15;101205.63;;;25.70;85.48
51299;BME280;37382;45.192;9.790;2022-09-02T08:10:43;101200.41;;;25.53;85.02
51299;BME280;37382;45.192;9.790;2022-09-02T08:13:12;101200.00;;;25.31;83.06
51299;BME280;37382;45.192;9.790;2022-09-02T08:15:39;101200.00;;;25.31;86.30
51299;BME280;37382;45.192;9.790;2022-09-02T08:18:07;101197.63;;;25.59;83.83
51299;BME280;37382;45.192;9.790;2022-09-02T08:20:45;101207.13;;;25.47;83.93
51299;BME280;37382;45.192;9.790;2022-09-02T08:23:13;101203.03;;;25.34;82.53
51299;BME280;37382;45.192;9.790;2022-09-02T08:26:01;101204.28;;;24.97;82.42
51299;BME280;37382;45.192;9.790;2022-09-02T08:28:29;101194.09;;;24.41;85.89
51299;BME280;37382;45.192;9.790;2022-09-02T08:30:58;101202.44;;;24.67;86.35
51299;BME280;37382;45.192;9.790;2022-09-02T08:33:26;101202.06;;;24.94;87.12
51299;BME280;37382;45.192;9.790;2022-09-02T08:35:53;101201.38;;;25.33;83.59
51299;BME280;37382;45.192;9.790;2022-09-02T08:38:21;101200.38;;;24.98;81.57
51299;BME280;37382;45.192;9.790;2022-09-02T08:40:49;101205.50;;;25.46;82.52
51299;BME280;37382;45.192;9.790;2022-09-02T08:43:29;101203.75;;;25.55;84.26
51299;BME280;37382;45.192;9.790;2022-09-02T08:46:06;101203.47;;;26.02;79.01
51299;BME280;37382;45.192;9.790;2022-09-02T08:51:12;101204.78;;;25.70;79.39
51299;BME280;37382;45.192;9.790;2022-09-02T08:57:06;101195.69;;;26.33;78.96
51299;BME280;37382;45.192;9.790;2022-09-02T08:59:36;101199.59;;;25.92;78.13
51299;BME280;37382;45.192;9.790;2022-09-02T09:15:48;101192.81;;;26.97;74.41
51299;BME280;37382;45.192;9.790;2022-09-02T09:21:38;101193.19;;;27.52;71.66
51299;BME280;37382;45.192;9.790;2022-09-02T09:27:03;101202.16;;;27.30;70.84
51299;BME280;37382;45.192;9.790;2022-09-02T09:29:32;101202.31;;;26.96;72.13
51299;BME280;37382;45.192;9.790;2022-09-02T09:32:00;101192.63;;;27.31;69.84
51299;BME280;37382;45.192;9.790;2022-09-02T09:37:47;101190.19;;;26.82;71.59
51299;BME280;37382;45.192;9.790;2022-09-02T09:45:47;101179.38;;;26.75;70.16
51299;BME280;37382;45.192;9.790;2022-09-02T09:53:26;101164.84;;;26.19;70.59
51299;BME280;37382;45.192;9.790;2022-09-02T10:01:20;101153.78;;;27.35;70.32
51299;BME280;37382;45.192;9.790;2022-09-02T10:06:42;101145.13;;;27.31;66.36
51299;BME280;37382;45.192;9.790;2022-09-02T10:09:34;101146.66;;;27.81;67.54
51299;BME280;37382;45.192;9.790;2022-09-02T10:12:11;101152.94;;;27.73;68.65
51299;BME280;37382;45.192;9.790;2022-09-02T10:14:45;101146.97;;;27.79;68.33
51299;BME280;37382;45.192;9.790;2022-09-02T10:20:02;101139.41;;;27.80;66.46
51299;BME280;37382;45.192;9.790;2022-09-02T10:37:23;101151.28;;;28.24;62.84
51299;BME280;37382;45.192;9.790;2022-09-02T10:40:16;101142.97;;;28.18;66.57
51299;BME280;37382;45.192;9.790;2022-09-02T10:43:06;101149.53;;;27.76;63.12
51299;BME280;37382;45.192;9.790;2022-09-02T10:48:28;101142.59;;;27.73;63.13
51299;BME280;37382;45.192;9.790;2022-09-02T10:57:22;101119.63;;;27.76;63.80
51299;BME280;37382;45.192;9.790;2022-09-02T11:00:05;101123.34;;;27.52;62.55
51299;BME280;37382;45.192;9.790;2022-09-02T11:02:41;101114.06;;;27.57;62.73
51299;BME280;37382;45.192;9.790;2022-09-02T11:05:17;101110.44;;;28.22;61.89
51299;BME280;37382;45.192;9.790;2022-09-02T11:07:51;101107.78;;;28.31;63.83
51299;BME280;37382;45.192;9.790;2022-09-02T11:10:28;101108.09;;;27.64;63.39
51299;BME280;37382;45.192;9.790;2022-09-02T11:13:04;101114.78;;;28.15;65.47
51299;BME280;37382;45.192;9.790;2022-09-02T11:15:44;101105.59;;;27.95;63.77
51299;BME280;37382;45.192;9.790;2022-09-02T11:18:24;101114.91;;;27.91;63.37
51299;BME280;37382;45.192;9.790;2022-09-02T11:21:05;101102.19;;;27.65;63.85
51299;BME280;37382;45.192;9.790;2022-09-02T11:23:47;101096.16;;;28.38;64.51
51299;BME280;37382;45.192;9.790;2022-09-02T11:26:37;101092.22;;;28.81;63.22
51299;BME280;37382;45.192;9.790;2022-09-02T11:32:14;101094.28;;;29.03;58.77
51299;BME280;37382;45.192;9.790;2022-09-02T11:34:50;101085.28;;;28.92;60.14
51299;BME280;37382;45.192;9.790;2022-09-02T11:37:36;101084.88;;;29.35;59.64
51299;BME280;37382;45.192;9.790;2022-09-02T11:40:30;101078.66;;;28.88;62.29
51299;BME280;37382;45.192;9.790;2022-09-02T11:54:15;101079.84;;;27.98;61.57
51299;BME280;37382;45.192;9.790;2022-09-02T11:56:47;101070.22;;;28.04;64.18
51299;BME280;37382;45.192;9.790;2022-09-02T12:02:42;101059.66;;;29.58;59.76
51299;BME280;37382;45.192;9.790;2022-09-02T12:08:10;101052.69;;;29.78;60.41
51299;BME280;37382;45.192;9.790;2022-09-02T12:11:48;101043.47;;;30.09;58.18
51299;BME280;37382;45.192;9.790;2022-09-02T12:19:41;101051.69;;;30.85;56.10
51299;BME280;37382;45.192;9.790;2022-09-02T12:27:42;101047.22;;;28.91;57.73
51299;BME280;37382;45.192;9.790;2022-09-02T12:30:10;101043.47;;;29.32;55.77
51299;BME280;37382;45.192;9.790;2022-09-02T12:35:32;101024.72;;;30.27;55.29
51299;BME280;37382;45.192;9.790;2022-09-02T12:43:42;101021.91;;;28.82;56.33
51299;BME280;37382;45.192;9.790;2022-09-02T12:52:37;101015.00;;;30.24;55.08
51299;BME280;37382;45.192;9.790;2022-09-02T12:57:45;101008.75;;;30.36;55.05
51299;BME280;37382;45.192;9.790;2022-09-02T13:00:16;101011.50;;;30.85;55.84
51299;BME280;37382;45.192;9.790;2022-09-02T13:14:17;100978.28;;;30.52;51.72
51299;BME280;37382;45.192;9.790;2022-09-02T13:31:24;100954.56;;;31.02;53.37
51299;BME280;37382;45.192;9.790;2022-09-02T13:34:02;100942.78;;;31.26;53.17
51299;BME280;37382;45.192;9.790;2022-09-02T13:36:49;100939.84;;;31.70;51.64
51299;BME280;37382;45.192;9.790;2022-09-02T13:39:25;100941.34;;;32.06;50.06
51299;BME280;37382;45.192;9.790;2022-09-02T13:41:53;100942.16;;;32.45;48.31
51299;BME280;37382;45.192;9.790;2022-09-02T13:44:27;100936.91;;;33.19;47.30
51299;BME280;37382;45.192;9.790;2022-09-02T13:47:03;100941.06;;;33.34;45.07
51299;BME280;37382;45.192;9.790;2022-09-02T13:49:35;100945.19;;;33.03;45.19
51299;BME280;37382;45.192;9.790;2022-09-02T13:52:06;100935.81;;;31.88;46.30
51299;BME280;37382;45.192;9.790;2022-09-02T13:54:53;100927.97;;;32.33;45.55
51299;BME280;37382;45.192;9.790;2022-09-02T13:57:24;100943.81;;;32.67;45.42
51299;BME280;37382;45.192;9.790;2022-09-02T13:59:55;100930.97;;;32.57;45.66
51299;BME280;37382;45.192;9.790;2022-09-02T14:02:35;100928.88;;;32.75;44.35
51299;BME280;37382;45.192;9.790;2022-09-02T14:05:14;100922.06;;;31.39;47.96
51299;BME280;37382;45.192;9.790;2022-09-02T14:07:45;100912.00;;;31.86;46.24
51299;BME280;37382;45.192;9.790;2022-09-02T14:10:18;100915.34;;;31.79;45.69
51299;BME280;37382;45.192;9.790;2022-09-02T14:12:48;100908.19;;;32.41;45.75
51299;BME280;37382;45.192;9.790;2022-09-02T14:15:24;100911.38;;;31.15;47.81
51299;BME280;37382;45.192;9.790;2022-09-02T14:20:36;100898.63;;;33.76;42.89
51299;BME280;37382;45.192;9.790;2022-09-02T14:23:04;100888.69;;;39.58;34.54
51299;BME280;37382;45.192;9.790;2022-09-02T14:25:36;100883.69;;;42.61;28.74
51299;BME280;37382;45.192;9.790;2022-09-02T14:28:09;100883.75;;;43.21;26.19
51299;BME280;37382;45.192;9.790;2022-09-02T14:30:59;100889.63;;;42.99;26.89
51299;BME280;37382;45.192;9.790;2022-09-02T14:33:37;100887.69;;;44.93;24.17
51299;BME280;37382;45.192;9.790;2022-09-02T14:41:31;100885.13;;;46.61;21.82
51299;BME280;37382;45.192;9.790;2022-09-02T14:44:11;100885.72;;;47.75;20.88
51299;BME280;37382;45.192;9.790;2022-09-02T14:46:47;100881.81;;;46.43;21.71
51299;BME280;37382;45.192;9.790;2022-09-02T14:49:20;100873.56;;;46.65;21.49
51299;BME280;37382;45.192;9.790;2022-09-02T14:51:57;100870.31;;;46.43;21.49
51299;BME280;37382;45.192;9.790;2022-09-02T14:54:38;100873.94;;;47.20;20.37
51299;BME280;37382;45.192;9.790;2022-09-02T14:59:47;100863.66;;;46.46;20.86
51299;BME280;37382;45.192;9.790;2022-09-02T15:04:56;100870.81;;;47.93;19.96
51299;BME280;37382;45.192;9.790;2022-09-02T15:07:24;100871.75;;;48.74;19.65
51299;BME280;37382;45.192;9.790;2022-09-02T15:09:52;100858.09;;;50.85;17.76
51299;BME280;37382;45.192;9.790;2022-09-02T15:12:28;100866.31;;;49.41;18.49
51299;BME280;37382;45.192;9.790;2022-09-02T15:14:56;100868.38;;;50.86;17.65
51299;BME280;37382;45.192;9.790;2022-09-02T15:17:25;100868.13;;;48.15;18.59
51299;BME280;37382;45.192;9.790;2022-09-02T15:19:53;100872.31;;;50.38;17.54
51299;BME280;37382;45.192;9.790;2022-09-02T15:22:22;100862.81;;;49.59;17.87
51299;BME280;37382;45.192;9.790;2022-09-02T15:24:51;100863.69;;;48.95;18.13
51299;BME280;37382;45.192;9.790;2022-09-02T15:27:19;100856.72;;;49.79;17.88
51299;BME280;37382;45.192;9.790;2022-09-02T15:30:11;100856.28;;;51.19;16.75
51299;BME280;37382;45.192;9.790;2022-09-02T15:32:39;100857.31;;;50.31;17.42
51299;BME280;37382;45.192;9.790;2022-09-02T15:35:07;100857.94;;;48.40;18.31
51299;BME280;37382;45.192;9.790;2022-09-02T15:37:35;100858.13;;;49.13;18.43
51299;BME280;37382;45.192;9.790;2022-09-02T15:40:06;100856.94;;;46.73;20.26
51299;BME280;37382;45.192;9.790;2022-09-02T15:42:38;100872.47;;;48.36;18.55
51299;BME280;37382;45.192;9.790;2022-09-02T15:45:06;100869.72;;;47.41;19.22
51299;BME280;37382;45.192;9.790;2022-09-02T15:47:38;100868.09;;;49.00;18.84
51299;BME280;37382;45.192;9.790;2022-09-02T15:50:37;100870.22;;;47.85;19.07
51299;BME280;37382;45.192;9.790;2022-09-02T15:53:05;100861.19;;;46.84;20.05
51299;BME280;37382;45.192;9.790;2022-09-02T15:55:33;100869.13;;;49.19;17.71